Waldheim, Canada
Current Conditions -  °F | °C
As of 10:00 PM on Monday 20 Oct 2014 (Local Time) from CYXE Reporting Station
Clear Clear  
Wind Chill: 55°   Ceiling: Unl
Heat Index: 55°   Visibility: 15mi
Dew Point: 41°   Wind: 10mph
Humidity: 58%   Direction: 180°S
Pressure: 29.63"   Gusts: NA
Location:  52.62°N, 106.65°W
Report Text: CYXE 210400Z 18009KT 15SM SKC 13/05 A2963 RMK SLP044 DENSITY ALT 2100FT
Loading
Personal Weather Stations






























Interactive Weather Map New forecast layout! Learn more

10-Day Weather Forecast

Advertisements
Track Severe Weather on mobile